createdAt,value
2019-05-03T00:02:34.175Z,92.30
2019-05-03T00:05:13.053Z,92.40
2019-05-03T00:07:42.109Z,92.30
2019-05-03T00:10:12.847Z,92.40
2019-05-03T00:12:42.235Z,92.40
2019-05-03T00:15:12.888Z,92.40
2019-05-03T00:17:43.096Z,92.30
2019-05-03T00:20:12.100Z,92.30
2019-05-03T00:22:41.866Z,92.60
2019-05-03T00:25:12.876Z,92.80
2019-05-03T00:27:42.807Z,92.90
2019-05-03T00:30:12.041Z,92.90
2019-05-03T00:32:42.577Z,92.90
2019-05-03T00:35:29.307Z,92.80
2019-05-03T00:37:59.651Z,92.90
2019-05-03T00:40:28.873Z,93.10
2019-05-03T00:42:58.631Z,92.90
2019-05-03T00:45:27.521Z,92.80
2019-05-03T00:47:56.455Z,92.70
2019-05-03T00:50:25.091Z,92.70
2019-05-03T00:52:56.034Z,92.70
2019-05-03T00:55:25.038Z,93.20
2019-05-03T00:57:53.927Z,92.80
2019-05-03T01:00:24.779Z,92.80
2019-05-03T01:02:53.156Z,92.90
2019-05-03T01:05:22.727Z,93.00
2019-05-03T01:07:52.548Z,93.00
2019-05-03T01:10:22.615Z,92.90
2019-05-03T01:12:52.403Z,92.70
2019-05-03T01:15:28.829Z,92.40
2019-05-03T01:17:58.022Z,92.50
2019-05-03T01:20:26.814Z,92.40
2019-05-03T01:22:55.449Z,92.30
2019-05-03T01:25:32.351Z,92.40
2019-05-03T01:27:54.691Z,92.80
2019-05-03T01:30:23.448Z,92.70
2019-05-03T01:32:53.957Z,92.80
2019-05-03T01:35:22.686Z,92.90
2019-05-03T01:37:51.855Z,93.10
2019-05-03T01:40:22.025Z,93.10
2019-05-03T01:42:51.871Z,93.10
2019-05-03T01:45:22.627Z,92.80
2019-05-03T01:47:52.887Z,92.60
2019-05-03T01:50:23.174Z,92.70
2019-05-03T01:52:53.441Z,92.60
2019-05-03T01:55:23.879Z,92.70
2019-05-03T01:57:52.711Z,92.70
2019-05-03T02:00:23.208Z,92.50
2019-05-03T02:02:53.608Z,92.50
2019-05-03T02:05:40.177Z,92.60
2019-05-03T02:08:12.462Z,92.60
2019-05-03T02:10:40.906Z,92.70
2019-05-03T02:13:09.769Z,92.70
2019-05-03T02:15:39.152Z,92.50
2019-05-03T02:18:08.112Z,92.20
2019-05-03T02:20:36.758Z,92.10
2019-05-03T02:23:05.821Z,92.10
2019-05-03T02:25:35.146Z,92.30
2019-05-03T02:28:04.290Z,92.30
2019-05-03T02:30:33.433Z,92.40
2019-05-03T02:33:04.098Z,92.50
2019-05-03T02:35:33.456Z,92.40
2019-05-03T02:38:03.510Z,92.40
2019-05-03T02:40:33.928Z,92.40
2019-05-03T02:43:20.674Z,92.50
2019-05-03T02:45:56.976Z,92.60
2019-05-03T02:48:27.452Z,92.70
2019-05-03T02:50:56.296Z,92.60
2019-05-03T02:53:26.351Z,92.60
2019-05-03T02:55:56.132Z,92.60
2019-05-03T02:58:25.636Z,92.50
2019-05-03T03:01:06.100Z,92.60
2019-05-03T03:03:36.296Z,92.50
2019-05-03T03:06:06.745Z,92.60
2019-05-03T03:08:37.724Z,92.70
2019-05-03T03:11:08.347Z,92.70
2019-05-03T03:13:38.674Z,93.20
2019-05-03T03:16:09.949Z,93.00
2019-05-03T03:18:40.400Z,93.40
2019-05-03T03:21:18.691Z,93.20
2019-05-03T03:24:08.231Z,93.10
2019-05-03T03:26:42.740Z,93.10
2019-05-03T03:29:11.688Z,92.90
2019-05-03T03:31:57.325Z,92.80
2019-05-03T03:34:28.178Z,92.70
2019-05-03T03:37:03.720Z,92.70
2019-05-03T03:39:27.997Z,93.00
2019-05-03T03:41:57.719Z,93.30
2019-05-03T03:44:28.051Z,93.50
2019-05-03T03:46:59.105Z,93.60
2019-05-03T03:49:29.865Z,93.60
2019-05-03T03:52:00.913Z,93.60
2019-05-03T03:54:35.563Z,93.60
2019-05-03T03:57:07.999Z,93.50
2019-05-03T03:59:36.560Z,93.30
2019-05-03T04:02:06.420Z,93.20
2019-05-03T04:04:36.149Z,93.00
2019-05-03T04:07:06.599Z,92.80
2019-05-03T04:09:36.893Z,92.80
2019-05-03T04:12:06.609Z,92.90
2019-05-03T04:14:52.826Z,92.90
2019-05-03T04:17:26.064Z,92.90
2019-05-03T04:19:56.769Z,92.60
2019-05-03T04:22:26.381Z,92.80
2019-05-03T04:24:56.521Z,92.80
2019-05-03T04:27:27.676Z,92.70
2019-05-03T04:29:57.872Z,92.70
2019-05-03T04:32:28.972Z,92.70
2019-05-03T04:34:58.533Z,92.70
2019-05-03T04:37:27.795Z,92.90
2019-05-03T04:39:57.330Z,92.70
2019-05-03T04:42:26.759Z,92.90
2019-05-03T04:44:56.649Z,92.90
2019-05-03T04:47:26.689Z,93.00
2019-05-03T04:49:56.425Z,93.30
2019-05-03T04:52:26.220Z,93.60
2019-05-03T04:55:03.139Z,93.70
2019-05-03T04:57:42.113Z,93.60
2019-05-03T05:00:06.023Z,93.80
2019-05-03T05:02:35.427Z,93.70
2019-05-03T05:05:06.189Z,93.70
2019-05-03T05:07:35.641Z,93.70
2019-05-03T05:10:06.849Z,93.50
2019-05-03T05:12:36.072Z,93.30
2019-05-03T05:15:07.123Z,93.20
2019-05-03T05:17:45.898Z,92.80
2019-05-03T05:20:16.948Z,92.60
2019-05-03T05:22:46.740Z,92.60
2019-05-03T05:25:17.838Z,92.40
2019-05-03T05:28:05.539Z,92.00
2019-05-03T05:30:35.291Z,91.60
2019-05-03T05:33:06.443Z,91.40
2019-05-03T05:35:36.043Z,91.10
2019-05-03T05:38:05.698Z,91.00
2019-05-03T05:40:35.146Z,91.20
2019-05-03T05:43:05.075Z,91.00
2019-05-03T05:45:34.980Z,90.10
2019-05-03T05:48:09.041Z,90.20
2019-05-03T05:50:40.144Z,89.60
2019-05-03T05:53:09.643Z,90.10
2019-05-03T05:55:44.740Z,88.70
2019-05-03T05:58:31.810Z,88.40
2019-05-03T06:01:08.558Z,88.00
2019-05-03T06:03:37.839Z,88.20
2019-05-03T06:06:08.645Z,87.60
2019-05-03T06:08:44.668Z,87.70
2019-05-03T06:11:28.273Z,87.50
2019-05-03T06:13:59.011Z,86.90
2019-05-03T06:16:39.283Z,85.40
2019-05-03T06:19:16.905Z,85.50
2019-05-03T06:21:51.054Z,86.30
2019-05-03T06:24:27.828Z,85.90
2019-05-03T06:27:15.344Z,84.90
2019-05-03T06:29:45.627Z,84.40
2019-05-03T06:32:28.677Z,83.10
2019-05-03T06:34:58.136Z,83.10
2019-05-03T06:37:31.813Z,82.10
2019-05-03T06:40:01.415Z,81.20
2019-05-03T06:42:30.695Z,78.90
2019-05-03T06:45:10.121Z,77.90
2019-05-03T06:47:31.246Z,77.40
2019-05-03T06:50:00.507Z,78.30
2019-05-03T06:52:29.720Z,77.90
2019-05-03T06:55:00.414Z,77.60
2019-05-03T06:57:30.839Z,76.70
2019-05-03T07:00:01.722Z,77.40
2019-05-03T07:02:38.817Z,77.70
2019-05-03T07:05:09.927Z,79.20
2019-05-03T07:07:40.887Z,78.70
2019-05-03T07:10:18.698Z,78.40
2019-05-03T07:13:01.777Z,79.40
2019-05-03T07:15:31.232Z,77.10
2019-05-03T07:18:00.717Z,77.90
2019-05-03T07:20:31.835Z,76.50
2019-05-03T07:23:01.304Z,76.60
2019-05-03T07:25:31.165Z,76.90
2019-05-03T07:28:00.575Z,75.70
2019-05-03T07:30:29.982Z,74.60
2019-05-03T07:33:00.901Z,73.60
2019-05-03T07:35:30.415Z,72.40
2019-05-03T07:38:02.113Z,69.90
2019-05-03T07:40:31.731Z,70.00
2019-05-03T07:43:01.781Z,67.00
2019-05-03T07:45:31.220Z,67.60
2019-05-03T07:48:00.666Z,66.40
2019-05-03T07:50:33.002Z,67.70
2019-05-03T07:53:01.055Z,67.70
2019-05-03T07:55:47.742Z,68.80
2019-05-03T07:58:25.333Z,68.90
2019-05-03T08:01:05.834Z,68.10
2019-05-03T08:03:26.874Z,66.70
2019-05-03T08:05:56.183Z,66.40
2019-05-03T08:08:25.193Z,66.90
2019-05-03T08:10:55.084Z,66.00
2019-05-03T08:13:25.350Z,65.20
2019-05-03T08:15:55.703Z,65.60
2019-05-03T08:18:25.852Z,66.50
2019-05-03T08:20:56.126Z,66.60
2019-05-03T08:23:30.020Z,66.40
2019-05-03T08:25:56.747Z,65.80
2019-05-03T08:28:26.313Z,65.40
2019-05-03T08:30:56.830Z,63.80
2019-05-03T08:33:39.713Z,62.70
2019-05-03T08:36:09.440Z,60.50
2019-05-03T08:38:38.629Z,58.40
2019-05-03T08:41:09.292Z,57.20
2019-05-03T08:43:38.979Z,58.10
2019-05-03T08:46:08.662Z,58.20
2019-05-03T08:48:38.101Z,57.10
2019-05-03T08:51:07.749Z,55.30
2019-05-03T08:53:37.613Z,57.40
2019-05-03T08:56:07.168Z,58.30
2019-05-03T08:58:36.755Z,57.20
2019-05-03T09:01:06.363Z,58.10
2019-05-03T09:03:38.306Z,57.00
2019-05-03T09:06:07.055Z,58.70
2019-05-03T09:08:36.740Z,59.40
2019-05-03T09:11:07.776Z,60.20
2019-05-03T09:13:45.107Z,59.50
2019-05-03T09:16:14.921Z,58.30
2019-05-03T09:18:45.442Z,57.40
2019-05-03T09:21:14.914Z,57.80
2019-05-03T09:23:45.037Z,54.80
2019-05-03T09:26:15.156Z,53.20
2019-05-03T09:28:45.382Z,53.60
2019-05-03T09:31:15.493Z,52.10
2019-05-03T09:33:45.299Z,53.90
2019-05-03T09:36:14.838Z,52.50
2019-05-03T09:38:45.800Z,52.20
2019-05-03T09:41:15.256Z,51.50
2019-05-03T09:43:45.036Z,53.40
2019-05-03T09:46:14.777Z,54.90
2019-05-03T09:48:45.461Z,52.80
2019-05-03T09:51:15.004Z,51.40
2019-05-03T09:53:48.735Z,52.30
2019-05-03T09:56:19.392Z,52.10
2019-05-03T09:58:48.577Z,51.50
2019-05-03T10:01:17.674Z,53.00
2019-05-03T10:03:46.972Z,53.20
2019-05-03T10:06:17.605Z,53.30
2019-05-03T10:08:47.240Z,53.80
2019-05-03T10:11:16.344Z,51.60
2019-05-03T10:13:48.038Z,52.20
2019-05-03T10:16:16.435Z,52.50
2019-05-03T10:18:46.075Z,49.10
2019-05-03T10:21:15.342Z,49.40
2019-05-03T10:23:45.260Z,44.50
2019-05-03T10:26:16.980Z,46.20
2019-05-03T10:28:47.270Z,49.10
2019-05-03T10:31:16.703Z,47.20
2019-05-03T10:33:47.313Z,48.30
2019-05-03T10:36:16.629Z,49.30
2019-05-03T10:38:46.312Z,46.30
2019-05-03T10:41:15.465Z,43.30
2019-05-03T10:43:45.322Z,43.90
2019-05-03T10:46:15.883Z,42.80
2019-05-03T10:48:45.442Z,46.80
2019-05-03T10:51:15.769Z,47.40
2019-05-03T10:53:46.977Z,44.10
2019-05-03T10:56:22.763Z,43.80
2019-05-03T10:58:50.888Z,43.60
2019-05-03T11:01:21.452Z,41.70
2019-05-03T11:03:50.706Z,42.70
2019-05-03T11:06:19.936Z,43.70
2019-05-03T11:08:49.533Z,44.70
2019-05-03T11:11:18.609Z,46.60
2019-05-03T11:13:47.729Z,45.00
2019-05-03T11:16:16.973Z,41.60
2019-05-03T11:18:46.101Z,39.50
2019-05-03T11:21:27.715Z,41.70
2019-05-03T11:23:46.847Z,43.30
2019-05-03T11:26:15.934Z,44.10
2019-05-03T11:28:45.283Z,44.90
2019-05-03T11:31:32.139Z,43.30
2019-05-03T11:34:03.059Z,38.80
2019-05-03T11:36:34.883Z,39.10
2019-05-03T11:39:05.807Z,36.90
2019-05-03T11:41:36.359Z,40.50
2019-05-03T11:44:24.595Z,41.90
2019-05-03T11:46:55.102Z,45.30
2019-05-03T11:49:25.463Z,47.50
2019-05-03T11:51:55.601Z,46.00
2019-05-03T11:54:25.099Z,44.80
2019-05-03T11:56:55.594Z,45.10
2019-05-03T11:59:25.393Z,45.00
2019-05-03T12:02:04.804Z,45.10
2019-05-03T12:04:35.390Z,44.10
2019-05-03T12:07:05.909Z,43.40
2019-05-03T12:09:35.197Z,43.10
2019-05-03T12:12:04.929Z,45.30
2019-05-03T12:14:34.652Z,46.00
2019-05-03T12:17:18.368Z,45.60
2019-05-03T12:19:37.682Z,48.30
2019-05-03T12:22:07.633Z,49.30
2019-05-03T12:24:38.673Z,50.60
2019-05-03T12:27:08.197Z,50.50
2019-05-03T12:29:37.550Z,50.60
2019-05-03T12:32:06.648Z,51.60
2019-05-03T12:34:35.914Z,52.90
2019-05-03T12:37:05.304Z,52.30
2019-05-03T12:39:35.767Z,50.80
2019-05-03T12:42:05.850Z,50.90
2019-05-03T12:44:35.600Z,51.00
2019-05-03T12:47:05.994Z,51.70
2019-05-03T12:49:36.003Z,52.10
2019-05-03T12:52:06.260Z,53.60
2019-05-03T12:54:35.873Z,55.10
2019-05-03T12:57:05.328Z,56.00
2019-05-03T12:59:45.202Z,56.90
2019-05-03T13:02:34.426Z,56.80
2019-05-03T13:05:04.865Z,57.50
2019-05-03T13:07:41.811Z,58.00
2019-05-03T13:10:11.223Z,57.20
2019-05-03T13:12:50.547Z,55.30
2019-05-03T13:15:11.322Z,55.60
2019-05-03T13:17:40.479Z,53.70
2019-05-03T13:20:14.783Z,53.90
2019-05-03T13:22:45.740Z,53.60
2019-05-03T13:25:15.706Z,51.50
2019-05-03T13:27:46.138Z,50.20
2019-05-03T13:30:15.989Z,50.30
2019-05-03T13:32:45.701Z,50.80
2019-05-03T13:35:15.218Z,50.30
2019-05-03T13:37:45.297Z,50.60
2019-05-03T13:40:15.747Z,50.70
2019-05-03T13:42:56.143Z,50.40
2019-05-03T13:45:15.899Z,50.80
2019-05-03T13:47:45.159Z,49.20
2019-05-03T13:50:15.170Z,49.60
2019-05-03T13:52:45.274Z,50.40
2019-05-03T13:55:14.950Z,50.90
2019-05-03T13:57:45.939Z,51.30
2019-05-03T14:00:15.332Z,51.90
2019-05-03T14:02:45.025Z,52.10
2019-05-03T14:05:15.508Z,53.10
2019-05-03T14:07:45.315Z,53.30
2019-05-03T14:10:14.945Z,52.50
2019-05-03T14:12:45.469Z,52.90
2019-05-03T14:15:16.092Z,52.00
2019-05-03T14:17:45.905Z,51.50
2019-05-03T14:20:16.841Z,50.00
2019-05-03T14:22:47.723Z,50.20
2019-05-03T14:25:16.737Z,50.70
2019-05-03T14:27:45.938Z,49.60
2019-05-03T14:30:15.383Z,50.60
2019-05-03T14:32:45.281Z,51.40
2019-05-03T14:35:16.321Z,51.50
2019-05-03T14:37:45.994Z,49.40
2019-05-03T14:40:15.808Z,48.90
2019-05-03T14:42:44.887Z,49.00
2019-05-03T14:45:15.122Z,47.40
2019-05-03T14:47:44.454Z,48.00
2019-05-03T14:50:14.983Z,47.40
2019-05-03T14:52:45.525Z,48.50
2019-05-03T14:55:16.375Z,49.50
2019-05-03T14:57:47.159Z,50.30
2019-05-03T15:00:20.526Z,51.30
2019-05-03T15:02:51.378Z,51.60
2019-05-03T15:05:20.599Z,52.30
2019-05-03T15:07:49.920Z,52.50
2019-05-03T15:10:19.082Z,53.00
2019-05-03T15:12:48.485Z,52.90
2019-05-03T15:15:17.863Z,53.20
2019-05-03T15:17:47.269Z,54.90
2019-05-03T15:20:16.735Z,55.80
2019-05-03T15:22:45.812Z,55.60
2019-05-03T15:25:15.165Z,56.70
2019-05-03T15:27:44.912Z,56.50
2019-05-03T15:30:15.574Z,54.80
2019-05-03T15:32:56.633Z,52.50
2019-05-03T15:35:16.366Z,54.40
2019-05-03T15:37:45.905Z,54.70
2019-05-03T15:40:15.686Z,54.90
2019-05-03T15:42:46.301Z,53.60
2019-05-03T15:45:25.240Z,52.10
2019-05-03T15:47:58.992Z,51.50
2019-05-03T15:50:28.167Z,48.30
2019-05-03T15:52:57.712Z,46.60
2019-05-03T15:55:27.329Z,47.30
2019-05-03T15:57:57.140Z,48.70
2019-05-03T16:00:26.886Z,52.00
2019-05-03T16:03:07.466Z,51.40
2019-05-03T16:05:27.861Z,54.70
2019-05-03T16:07:57.739Z,55.70
2019-05-03T16:10:27.156Z,58.00
2019-05-03T16:12:56.604Z,59.00
2019-05-03T16:15:26.171Z,58.40
2019-05-03T16:17:55.458Z,59.80
2019-05-03T16:20:25.155Z,60.80
2019-05-03T16:22:54.771Z,61.30
2019-05-03T16:25:25.135Z,64.30
2019-05-03T16:27:59.149Z,64.60
2019-05-03T16:30:39.682Z,64.70
2019-05-03T16:33:09.112Z,64.70
2019-05-03T16:35:39.106Z,64.50
2019-05-03T16:38:08.434Z,65.60
2019-05-03T16:40:38.132Z,66.10
2019-05-03T16:43:07.766Z,66.20
2019-05-03T16:45:37.250Z,68.00
2019-05-03T16:48:06.945Z,69.40
2019-05-03T16:50:36.740Z,69.40
2019-05-03T16:53:06.022Z,69.60
2019-05-03T16:55:35.269Z,69.50
2019-05-03T16:58:04.870Z,68.00
2019-05-03T17:00:35.295Z,66.70
2019-05-03T17:03:05.648Z,64.10
2019-05-03T17:05:54.760Z,64.60
2019-05-03T17:08:49.392Z,64.20
2019-05-03T17:11:20.473Z,64.60
2019-05-03T17:13:49.507Z,64.00
2019-05-03T17:16:18.891Z,63.60
2019-05-03T17:18:48.615Z,64.70
2019-05-03T17:21:18.248Z,64.80
2019-05-03T17:23:47.718Z,65.70
2019-05-03T17:26:17.643Z,66.50
2019-05-03T17:28:47.384Z,67.10
2019-05-03T17:31:17.060Z,66.70
2019-05-03T17:33:53.571Z,66.70
2019-05-03T17:36:17.848Z,67.10
2019-05-03T17:38:48.769Z,67.30
2019-05-03T17:41:36.369Z,66.40
2019-05-03T17:44:10.525Z,66.10
2019-05-03T17:46:40.465Z,66.10
2019-05-03T17:49:09.481Z,66.00
2019-05-03T17:51:40.550Z,65.90
2019-05-03T17:54:18.055Z,65.60
2019-05-03T17:56:55.289Z,65.90
2019-05-03T17:59:26.879Z,66.30
2019-05-03T18:01:56.861Z,67.10
2019-05-03T18:04:28.134Z,67.70
2019-05-03T18:07:01.714Z,66.70
2019-05-03T18:09:34.437Z,66.70
2019-05-03T18:12:07.110Z,66.80
2019-05-03T18:14:36.636Z,66.70
2019-05-03T18:17:05.988Z,67.80
2019-05-03T18:19:35.179Z,67.90
2019-05-03T18:22:05.249Z,68.30
2019-05-03T18:24:35.220Z,68.60
2019-05-03T18:27:04.883Z,69.60
2019-05-03T18:29:34.849Z,69.40
2019-05-03T18:32:05.474Z,69.10
2019-05-03T18:34:34.879Z,69.50
2019-05-03T18:37:04.868Z,69.60
2019-05-03T18:39:34.779Z,69.80
2019-05-03T18:42:06.037Z,70.30
2019-05-03T18:44:37.026Z,70.90
2019-05-03T18:47:07.815Z,71.20
2019-05-03T18:49:37.653Z,71.40
2019-05-03T18:52:07.156Z,72.50
2019-05-03T18:54:36.243Z,72.60
2019-05-03T18:57:05.780Z,73.40
2019-05-03T18:59:35.093Z,73.20
2019-05-03T19:02:05.449Z,71.60
2019-05-03T19:04:37.892Z,72.90
2019-05-03T19:07:11.760Z,73.50
2019-05-03T19:09:45.189Z,73.60
2019-05-03T19:12:18.361Z,73.40
2019-05-03T19:14:47.156Z,71.80
2019-05-03T19:17:35.428Z,72.90
2019-05-03T19:20:07.207Z,74.10
2019-05-03T19:22:36.083Z,74.20
2019-05-03T19:25:06.508Z,75.10
2019-05-03T19:27:35.310Z,74.80
2019-05-03T19:30:05.965Z,74.60
2019-05-03T19:32:35.826Z,74.10
2019-05-03T19:35:07.240Z,75.00
2019-05-03T19:37:35.967Z,74.00
2019-05-03T19:40:06.505Z,74.60
2019-05-03T19:42:35.517Z,75.30
2019-05-03T19:45:04.957Z,75.00
2019-05-03T19:47:35.239Z,75.20
2019-05-03T19:50:05.892Z,75.50
2019-05-03T19:52:36.993Z,76.50
2019-05-03T19:55:06.829Z,76.30
2019-05-03T19:57:37.358Z,75.60
2019-05-03T20:00:09.154Z,74.70
2019-05-03T20:02:42.191Z,73.80
2019-05-03T20:05:12.442Z,73.70
2019-05-03T20:07:59.886Z,74.50
2019-05-03T20:10:30.050Z,74.20
2019-05-03T20:12:59.019Z,73.70
2019-05-03T20:15:27.790Z,74.10
2019-05-03T20:18:00.205Z,73.50
2019-05-03T20:20:27.028Z,74.10
2019-05-03T20:22:58.747Z,73.50
2019-05-03T20:25:26.366Z,72.90
2019-05-03T20:27:55.936Z,73.10
2019-05-03T20:30:25.490Z,74.20
2019-05-03T20:32:55.540Z,74.30
2019-05-03T20:35:25.221Z,75.00
2019-05-03T20:37:55.356Z,74.80
2019-05-03T20:40:25.548Z,75.50
2019-05-03T20:43:05.482Z,75.90
2019-05-03T20:45:35.902Z,76.30
2019-05-03T20:48:06.638Z,76.80
2019-05-03T20:50:35.776Z,77.80
2019-05-03T20:53:05.351Z,78.80
2019-05-03T20:55:34.798Z,78.90
2019-05-03T20:58:08.431Z,79.70
2019-05-03T21:00:37.020Z,80.30
2019-05-03T21:03:06.288Z,80.90
2019-05-03T21:05:37.380Z,81.20
2019-05-03T21:08:05.678Z,81.20
2019-05-03T21:10:34.552Z,81.60
2019-05-03T21:13:05.287Z,81.10
2019-05-03T21:15:38.299Z,80.60
2019-05-03T21:18:24.902Z,80.30
2019-05-03T21:20:55.532Z,79.90
2019-05-03T21:23:42.067Z,79.20
2019-05-03T21:26:13.363Z,79.30
2019-05-03T21:28:41.372Z,79.30
2019-05-03T21:31:10.136Z,79.70
2019-05-03T21:33:39.100Z,80.10
2019-05-03T21:36:08.215Z,80.30
2019-05-03T21:38:37.099Z,80.60
2019-05-03T21:41:06.176Z,79.00
2019-05-03T21:43:35.073Z,79.30
2019-05-03T21:46:15.175Z,80.00
2019-05-03T21:48:48.881Z,80.80
2019-05-03T21:51:17.749Z,81.90
2019-05-03T21:53:46.776Z,82.00
2019-05-03T21:56:15.495Z,82.20
2019-05-03T21:58:44.691Z,82.50
2019-05-03T22:01:15.504Z,82.50
2019-05-03T22:03:44.835Z,82.80
2019-05-03T22:06:15.404Z,83.50
2019-05-03T22:08:45.513Z,84.30
2019-05-03T22:11:14.812Z,84.80
2019-05-03T22:13:46.134Z,85.20
2019-05-03T22:16:16.763Z,85.60
2019-05-03T22:18:45.708Z,85.80
2019-05-03T22:21:24.894Z,85.40
2019-05-03T22:23:57.882Z,86.10
2019-05-03T22:26:45.308Z,85.90
2019-05-03T22:29:17.122Z,85.90
2019-05-03T22:31:45.376Z,86.60
2019-05-03T22:34:15.062Z,87.00
2019-05-03T22:36:44.512Z,87.00
2019-05-03T22:39:15.613Z,87.40
2019-05-03T22:41:44.286Z,88.00
2019-05-03T22:44:14.757Z,87.60
2019-05-03T22:46:44.593Z,88.00
2019-05-03T22:49:15.451Z,87.90
2019-05-03T22:51:45.170Z,88.10
2019-05-03T22:54:15.416Z,88.40
2019-05-03T22:56:44.867Z,88.30
2019-05-03T22:59:14.766Z,87.70
2019-05-03T23:01:45.778Z,87.30
2019-05-03T23:04:14.703Z,86.70
2019-05-03T23:06:44.773Z,87.20
2019-05-03T23:09:15.888Z,87.20
2019-05-03T23:11:45.138Z,87.60
2019-05-03T23:14:15.107Z,88.20
2019-05-03T23:16:44.961Z,88.40
2019-05-03T23:19:14.994Z,88.90
2019-05-03T23:21:48.386Z,88.60
2019-05-03T23:24:17.323Z,88.20
2019-05-03T23:26:46.074Z,88.10
2019-05-03T23:29:15.075Z,88.80
2019-05-03T23:31:44.822Z,88.80
2019-05-03T23:34:13.907Z,88.50
2019-05-03T23:36:42.625Z,88.70
2019-05-03T23:39:11.310Z,88.80
2019-05-03T23:41:39.912Z,89.20
2019-05-03T23:44:08.729Z,89.40
2019-05-03T23:46:39.199Z,89.30
2019-05-03T23:49:08.143Z,89.50
2019-05-03T23:51:51.181Z,89.90
2019-05-03T23:54:20.123Z,90.00
2019-05-03T23:56:48.998Z,90.00
2019-05-03T23:59:17.868Z,89.60
